Latest Weather Observations for Strahan

IDT60801

Issued at 2:02 pm EST Saturday 28 May 2016 (issued every 30 minutes, with the page automatically refreshed every 10 minutes)

About weather observations | Map of weather stations | Latest weather observations for TAS | Other Formats
Station Details ID: 097072 Name: STRAHAN AERODROME Lat: -42.16 Lon: 145.29 Height: 21.0 m
Data from the previous 72 hours. | See also: Recent months at Strahan
Date/Time
EST
Temp
°C
App
Temp
°C
Dew
Point
Rel
Hum
%
Delta-T
°C
Wind Press
QNH
hPa
Press
MSL
hPa
Rain
since 9 am
mm
Dir
 
Spd
km/h
Gust
km/h
Spd
kts
Gust
kts
28/02:00pm 9.6 6.4 8.4 92 0.6 SSE 15 33 8 18 1008.1 1008.2 5.8
28/01:47pm 9.7 8.1 8.8 94 0.4 NNE 7 11 4 6 1008.2 1008.3 5.2
28/01:30pm 9.2 6.3 8.1 93 0.5 NNW 13 17 7 9 1008.2 1008.3 3.8
28/01:15pm 9.3 5.3 8.2 93 0.5 NNW 19 22 10 12 1008.3 1008.4 3.8
28/01:13pm 9.3 5.3 8.2 93 0.5 NNW 19 22 10 12 1008.3 1008.4 3.6
28/01:03pm 9.4 6.5 8.2 92 0.6 NNW 13 19 7 10 1008.4 1008.5 3.2
28/01:00pm 9.4 6.9 8.2 92 0.6 NNW 11 15 6 8 1008.4 1008.5 2.8
28/12:30pm 9.9 6.7 8.3 90 0.8 NW 15 19 8 10 1008.7 1008.8 0.8
28/12:24pm 9.8 6.5 7.9 88 0.9 NW 15 20 8 11 1008.7 1008.8 0.8
28/12:00pm 10.3 7.5 8.6 89 0.8 NNW 13 17 7 9 1009.0 1009.1 0.4
28/11:30am 10.4 7.9 8.2 86 1.1 NNW 11 15 6 8 1009.5 1009.6 0.2
28/11:00am 9.2 6.8 6.8 85 1.1 NW 9 15 5 8 1009.8 1009.9 0.2
28/10:30am 10.3 8.2 8.2 87 1.0 NNE 9 13 5 7 1009.7 1009.8 0.0
28/10:00am 9.1 6.9 7.9 92 0.6 NNE 9 13 5 7 1009.6 1009.7 0.0
28/09:30am 8.3 5.6 7.5 95 0.4 NE 11 17 6 9 1009.6 1009.7 0.0
28/09:00am 6.8 4.2 6.1 95 0.3 NNE 9 15 5 8 1009.7 1009.8 3.4
28/08:30am 6.7 4.1 6.1 96 0.3 NNE 9 13 5 7 1009.7 1009.8 3.2
28/08:00am 6.1 3.9 5.4 95 0.3 NE 6 11 3 6 1009.7 1009.8 3.2
28/07:30am 6.1 3.4 5.4 95 0.3 NE 9 11 5 6 1009.6 1009.7 3.2
28/07:28am 6.1 3.4 5.4 95 0.3 NE 9 11 5 6 1009.6 1009.7 3.2
28/07:00am 5.9 3.5 5.2 95 0.3 ENE 7 11 4 6 1009.7 1009.8 2.2
28/06:42am 5.8 3.6 5.1 95 0.3 ESE 6 9 3 5 1009.4 1009.5 1.8
28/06:39am 5.8 3.4 5.1 95 0.3 E 7 11 4 6 1009.4 1009.5 1.6
28/06:30am 5.8 3.0 5.1 95 0.3 NNE 9 13 5 7 1009.3 1009.4 1.4
28/06:20am 5.8 3.0 5.1 95 0.3 NNE 9 15 5 8 1009.2 1009.3 1.2
28/06:00am 5.4 2.5 4.7 95 0.3 NE 9 13 5 7 1009.1 1009.2 1.0
28/05:30am 5.0 2.0 4.3 95 0.3 NNE 9 15 5 8 1008.9 1009.0 1.0
28/05:00am 5.1 2.2 4.4 95 0.3 NNE 9 13 5 7 1008.8 1008.9 1.0
28/04:30am 5.7 2.5 5.0 95 0.3 NE 11 15 6 8 1008.8 1008.9 1.0
28/04:13am 5.7 2.5 5.0 95 0.3 NNE 11 17 6 9 1008.8 1008.9 1.0
28/04:00am 5.8 2.6 5.1 95 0.3 NNE 11 15 6 8 1008.8 1008.9 1.0
28/03:30am 5.7 2.9 5.0 95 0.3 NNE 9 13 5 7 1008.9 1009.0 0.8
28/03:28am 5.7 2.5 5.0 95 0.3 NNE 11 13 6 7 1008.9 1009.0 0.8
28/03:03am 5.4 3.1 4.7 95 0.3 NNE 6 9 3 5 1009.1 1009.2 0.2
28/03:00am 5.4 2.9 4.7 95 0.3 NNE 7 11 4 6 1009.2 1009.3 0.2
28/02:30am 5.3 3.0 4.6 95 0.3 NE 6 9 3 5 1009.3 1009.4 0.2
28/02:00am 5.0 2.0 4.3 95 0.3 NNW 9 11 5 6 1009.2 1009.3 0.0
28/01:30am 4.9 1.9 4.2 95 0.3 NNE 9 13 5 7 1009.1 1009.2 0.0
28/01:00am 5.0 2.0 4.3 95 0.3 NNE 9 11 5 6 1009.0 1009.1 0.0
28/12:30am 4.7 1.7 4.0 95 0.3 N 9 9 5 5 1009.1 1009.2 0.0
28/12:00am 4.8 3.5 4.1 95 0.3 CALM 0 7 0 4 1009.0 1009.1 0.0
 
Date/Time
EST
Temp
°C
App
Temp
°C
Dew
Point
Rel
Hum
%
Delta-T
°C
Wind Press
QNH
hPa
Press
MSL
hPa
Rain
since 9 am
mm
Dir
 
Spd
km/h
Gust
km/h
Spd
kts
Gust
kts
27/11:30pm 3.9 1.3 3.0 94 0.4 WSW 6 9 3 5 1008.9 1009.0 0.0
27/11:12pm 4.1 1.5 3.2 94 0.4 NNW 6 7 3 4 1008.9 1009.0 0.0
27/11:00pm 4.4 1.9 3.5 94 0.4 ENE 6 9 3 5 1008.9 1009.0 0.0
27/10:43pm 4.8 1.8 3.9 94 0.4 ENE 9 11 5 6 1009.0 1009.1 0.0
27/10:30pm 5.3 4.1 4.4 94 0.4 CALM 0 0 0 0 1009.0 1009.1 0.0
27/10:00pm 6.3 3.9 5.4 94 0.4 NE 7 11 4 6 1009.1 1009.2 0.0
27/09:30pm 6.3 4.1 5.4 94 0.4 ESE 6 9 3 5 1009.0 1009.1 0.0
27/09:00pm 5.8 4.6 4.6 92 0.5 CALM 0 0 0 0 1008.8 1008.9 0.0
27/08:30pm 6.0 3.5 4.6 91 0.6 NE 7 9 4 5 1008.6 1008.7 0.0
27/08:00pm 7.1 5.0 5.6 90 0.7 ENE 6 9 3 5 1008.7 1008.8 0.0
27/07:30pm 8.3 7.6 6.8 90 0.7 CALM 0 0 0 0 1008.5 1008.6 0.0
27/07:00pm 8.5 6.7 7.0 90 0.7 SSE 6 7 3 4 1008.3 1008.4 0.0
27/06:30pm 8.6 6.6 6.9 89 0.8 SSE 7 9 4 5 1007.9 1008.0 0.0
27/06:00pm 8.7 6.3 6.8 88 0.9 SE 9 9 5 5 1007.7 1007.8 0.0
27/05:30pm 8.8 6.4 6.9 88 0.9 SSE 9 9 5 5 1007.5 1007.5 0.0
27/05:00pm 8.4 5.9 6.4 87 0.9 SE 9 13 5 7 1007.2 1007.2 0.0
27/04:30pm 9.6 7.2 7.0 84 1.2 SSE 9 11 5 6 1006.9 1006.9 0.0
27/04:00pm 11.3 8.2 7.4 77 1.9 SE 13 17 7 9 1006.6 1006.6 0.0
27/03:30pm 10.8 7.7 7.1 78 1.8 SSE 13 15 7 8 1006.5 1006.5 0.0
27/03:00pm 11.1 7.6 7.4 78 1.8 SSE 15 20 8 11 1006.1 1006.1 0.0
27/02:30pm 11.0 7.6 7.5 79 1.7 SE 15 22 8 12 1006.0 1006.0 0.0
27/02:00pm 10.8 7.5 7.9 82 1.4 SSE 15 22 8 12 1005.8 1005.8 0.0
27/01:30pm 10.7 7.2 7.2 79 1.7 SSE 15 20 8 11 1005.9 1005.9 0.0
27/01:00pm 10.7 7.7 7.9 83 1.4 SE 13 20 7 11 1006.0 1006.0 0.0
27/12:30pm 10.2 6.7 7.4 83 1.3 SSE 15 17 8 9 1006.0 1006.0 0.0
27/12:00pm 10.0 7.0 7.8 86 1.1 SSE 13 17 7 9 1006.1 1006.1 0.0
27/11:30am 9.7 7.7 8.6 93 0.5 SSE 9 13 5 7 1006.2 1006.2 0.0
27/11:00am 8.9 6.8 8.1 95 0.4 SE 9 11 5 6 1006.3 1006.3 0.0
27/10:30am 8.6 6.4 8.0 96 0.3 SSE 9 11 5 6 1006.2 1006.2 0.0
27/10:26am 8.5 6.3 7.9 96 0.3 SSE 9 11 5 6 1006.3 1006.3 0.0
27/10:19am 8.2 6.3 7.6 96 0.3 S 7 11 4 6 1006.3 1006.3 0.0
27/10:00am 7.8 6.0 7.2 96 0.3 S 6 7 3 4 1006.2 1006.2 0.0
27/09:30am 7.0 5.8 6.4 96 0.3 NE 2 6 1 3 1005.9 1005.9 0.0
27/09:00am 6.4 4.7 5.8 96 0.3 NE 4 7 2 4 1005.9 1005.9 1.4
27/08:30am 6.1 4.3 5.5 96 0.3 NE 4 7 2 4 1005.8 1005.8 1.4
27/08:00am 5.9 4.1 5.3 96 0.3 NE 4 7 2 4 1005.6 1005.6 1.4
27/07:39am 5.7 2.9 5.1 96 0.3 NE 9 9 5 5 1005.3 1005.3 1.4
27/07:34am 5.6 3.1 5.0 96 0.3 ENE 7 9 4 5 1005.4 1005.4 1.4
27/07:30am 5.6 3.1 5.0 96 0.3 ENE 7 9 4 5 1005.4 1005.4 1.4
27/07:00am 5.7 4.2 5.1 96 0.3 WSW 2 6 1 3 1005.2 1005.2 1.4
27/06:30am 6.1 3.8 5.5 96 0.3 NNE 7 7 4 4 1004.8 1004.8 1.4
27/06:00am 5.9 3.7 5.3 96 0.3 NW 6 7 3 4 1004.8 1004.8 1.4
27/05:52am 5.9 3.7 5.3 96 0.3 NW 6 7 3 4 1004.8 1004.8 1.4
27/05:36am 6.0 3.8 5.4 96 0.3 ENE 6 9 3 5 1004.7 1004.7 1.4
27/05:30am 6.0 3.8 5.4 96 0.3 ENE 6 7 3 4 1004.7 1004.7 1.4
27/05:00am 6.1 3.9 5.5 96 0.3 N 6 7 3 4 1004.8 1004.8 1.4
27/04:30am 5.9 3.7 5.3 96 0.3 WNW 6 6 3 3 1004.8 1004.8 1.2
27/04:00am 5.7 3.3 5.1 96 0.3 NNE 7 11 4 6 1004.6 1004.6 1.2
27/03:46am 6.0 2.9 5.4 96 0.3 NNE 11 11 6 6 1004.5 1004.5 1.2
27/03:44am 6.0 3.3 5.4 96 0.3 NNE 9 11 5 6 1004.5 1004.5 1.2
27/03:30am 6.1 3.8 5.5 96 0.3 NNE 7 9 4 5 1004.6 1004.6 1.2
27/03:25am 6.1 4.3 5.5 96 0.3 NNE 4 7 2 4 1004.7 1004.7 1.2
27/03:00am 5.4 3.1 4.8 96 0.3 ESE 6 7 3 4 1004.9 1004.9 1.2
27/02:54am 5.3 3.0 4.6 95 0.3 ESE 6 9 3 5 1004.9 1004.9 1.2
27/02:47am 5.4 3.1 4.7 95 0.3 ENE 6 9 3 5 1004.8 1004.8 1.2
27/02:30am 5.8 3.6 5.2 96 0.3 N 6 11 3 6 1004.7 1004.7 1.2
27/02:23am 5.7 4.6 5.1 96 0.3 CALM 0 6 0 3 1004.7 1004.7 1.2
27/02:00am 5.7 3.5 5.1 96 0.3 N 6 6 3 3 1004.6 1004.6 1.2
27/01:30am 5.6 3.1 4.9 95 0.3 N 7 9 4 5 1004.3 1004.3 1.2
27/01:00am 6.0 3.8 5.3 95 0.3 NNW 6 9 3 5 1004.4 1004.4 1.2
27/12:32am 6.3 4.2 5.7 96 0.3 NE 6 9 3 5 1004.3 1004.3 1.2
27/12:30am 6.4 4.3 5.8 96 0.3 NE 6 11 3 6 1004.3 1004.3 1.2
27/12:01am 5.7 3.2 5.0 95 0.3 E 7 9 4 5 1004.4 1004.4 1.2
27/12:00am 5.7 3.2 5.0 95 0.3 E 7 9 4 5 1004.4 1004.4 1.2
 
Date/Time
EST
Temp
°C
App
Temp
°C
Dew
Point
Rel
Hum
%
Delta-T
°C
Wind Press
QNH
hPa
Press
MSL
hPa
Rain
since 9 am
mm
Dir
 
Spd
km/h
Gust
km/h
Spd
kts
Gust
kts
26/11:30pm 6.5 4.4 5.8 95 0.3 WSW 6 11 3 6 1004.5 1004.5 1.2
26/11:00pm 6.2 4.0 5.5 95 0.3 NE 6 7 3 4 1004.6 1004.6 1.2
26/10:30pm 5.8 4.7 4.9 94 0.4 CALM 0 0 0 0 1004.6 1004.6 1.2
26/10:00pm 6.6 4.5 5.9 95 0.3 NE 6 7 3 4 1004.4 1004.4 1.2
26/09:50pm 6.9 4.7 6.2 95 0.3 E 7 9 4 5 1004.5 1004.5 1.2
26/09:33pm 6.5 4.2 5.8 95 0.3 SE 7 15 4 8 1004.5 1004.5 1.0
26/09:30pm 6.7 4.6 6.0 95 0.3 ENE 6 15 3 8 1004.5 1004.5 1.0
26/09:00pm 6.3 4.1 5.4 94 0.4 ENE 6 6 3 3 1004.3 1004.3 0.8
26/08:30pm 7.3 5.2 6.6 95 0.3 ENE 7 7 4 4 1004.1 1004.1 0.8
26/08:00pm 7.1 6.2 6.2 94 0.4 CALM 0 0 0 0 1004.1 1004.1 0.8
26/07:30pm 7.2 5.2 6.3 94 0.4 N 6 7 3 4 1003.9 1003.9 0.8
26/07:00pm 7.3 6.1 6.4 94 0.4 NW 2 6 1 3 1003.9 1003.9 0.8
26/06:30pm 7.4 6.2 6.5 94 0.4 ENE 2 7 1 4 1003.7 1003.7 0.8
26/06:00pm 7.5 5.5 6.4 93 0.5 NNE 6 9 3 5 1003.4 1003.4 0.8
26/05:30pm 8.0 7.3 6.9 93 0.5 CALM 0 4 0 2 1003.1 1003.1 0.8
26/05:00pm 8.3 7.6 6.8 90 0.7 CALM 0 0 0 0 1002.8 1002.8 0.8
26/04:30pm 9.4 7.6 7.8 90 0.8 SSE 7 9 4 5 1002.5 1002.5 0.8
26/04:00pm 9.4 7.2 7.7 89 0.8 SSE 9 15 5 8 1002.4 1002.4 0.8
26/03:30pm 9.0 5.5 7.1 88 0.9 SW 15 20 8 11 1002.4 1002.4 0.6
26/03:00pm 9.6 7.0 7.9 89 0.8 SE 11 13 6 7 1002.1 1002.1 0.2
26/02:30pm 9.6 7.4 8.0 90 0.8 SE 9 13 5 7 1002.1 1002.1 0.2
26/02:00pm 10.6 8.4 9.4 92 0.6 SW 11 13 6 7 1002.2 1002.2 0.0
26/01:30pm 10.8 9.3 9.2 90 0.8 S 7 9 4 5 1002.2 1002.2 0.0
26/01:00pm 10.7 9.3 9.5 92 0.6 SSE 7 7 4 4 1002.4 1002.4 0.0
26/12:30pm 10.6 9.8 9.5 93 0.6 SE 4 7 2 4 1002.5 1002.5 0.0
26/12:00pm 10.3 9.8 9.4 94 0.5 SE 2 6 1 3 1002.8 1002.8 0.0
26/11:45am 10.1 8.8 9.3 95 0.4 SE 6 6 3 3 1002.9 1002.9 0.0
26/11:30am 10.0 8.5 9.2 95 0.4 SE 7 9 4 5 1002.9 1002.9 0.0
26/11:03am 9.7 7.8 8.9 95 0.4 SSE 9 11 5 6 1003.1 1003.1 0.0
26/11:00am 9.7 8.1 8.9 95 0.4 SSE 7 11 4 6 1003.0 1003.0 0.0
26/10:30am 9.3 7.7 8.7 96 0.3 SE 7 11 4 6 1003.0 1003.0 0.0
26/10:00am 8.7 6.9 8.1 96 0.3 ESE 7 9 4 5 1003.1 1003.1 0.0
26/09:32am 8.3 7.8 7.7 96 0.3 CALM 0 0 0 0 1003.4 1003.4 0.0
26/09:30am 8.2 7.6 7.6 96 0.3 CALM 0 0 0 0 1003.4 1003.4 0.0
26/09:23am 8.1 7.1 7.5 96 0.3 ENE 2 6 1 3 1003.3 1003.3 0.0
26/09:00am 7.6 5.8 7.0 96 0.3 ENE 6 9 3 5 1003.4 1003.4 10.4
26/08:38am 6.9 4.7 6.3 96 0.3 E 7 9 4 5 1003.5 1003.5 10.4
26/08:31am 6.7 4.5 6.1 96 0.3 ESE 7 9 4 5 1003.6 1003.6 10.4
26/08:30am 6.7 4.5 6.1 96 0.3 ESE 7 9 4 5 1003.6 1003.6 10.4
26/08:00am 6.6 5.7 6.0 96 0.3 CALM 0 6 0 3 1003.4 1003.4 10.4
26/07:30am 6.7 4.5 6.1 96 0.3 ENE 7 9 4 5 1003.3 1003.3 10.4
26/07:06am 7.0 4.5 6.4 96 0.3 NNE 9 11 5 6 1003.1 1003.1 10.4
26/07:00am 6.8 4.2 6.1 95 0.3 N 9 11 5 6 1003.1 1003.1 10.4
26/06:52am 6.9 4.7 6.2 95 0.3 N 7 11 4 6 1002.9 1002.9 10.4
26/06:30am 7.6 5.2 7.0 96 0.3 NE 9 11 5 6 1003.0 1003.0 10.4
26/06:06am 7.8 6.4 7.2 96 0.3 ESE 4 7 2 4 1003.0 1003.0 10.4
26/06:00am 7.8 7.2 7.2 96 0.3 CALM 0 0 0 0 1003.1 1003.1 10.4
26/05:44am 7.2 6.0 6.6 96 0.3 SSW 2 7 1 4 1003.2 1003.2 10.4
26/05:30am 6.8 4.8 6.1 95 0.3 SSE 6 13 3 7 1003.3 1003.3 10.2
26/05:00am 7.2 5.1 6.5 95 0.3 N 7 9 4 5 1002.8 1002.8 10.2
26/04:49am 7.0 4.8 6.3 95 0.3 N 7 9 4 5 1002.7 1002.7 10.2
26/04:30am 6.8 4.8 6.1 95 0.3 NNE 6 7 3 4 1002.7 1002.7 10.2
26/04:15am 7.8 6.0 7.1 95 0.3 NE 6 7 3 4 1002.7 1002.7 10.2
26/04:00am 7.4 5.3 6.7 95 0.3 NE 7 7 4 4 1002.9 1002.9 10.2
26/03:51am 7.3 5.4 6.6 95 0.3 NNE 6 7 3 4 1003.0 1003.0 10.2
26/03:30am 7.2 5.2 6.3 94 0.4 NNE 6 9 3 5 1003.0 1003.0 10.2
26/03:01am 8.5 6.8 7.7 95 0.4 NNE 6 7 3 4 1003.1 1003.1 10.2
26/03:00am 8.5 6.8 7.7 95 0.4 NNE 6 7 3 4 1003.1 1003.1 10.2
26/02:40am 8.6 6.7 7.7 94 0.4 N 7 9 4 5 1003.4 1003.4 10.2
26/02:37am 8.7 6.9 7.9 95 0.4 N 7 9 4 5 1003.4 1003.4 10.2
26/02:30am 9.0 7.4 8.1 94 0.4 N 6 7 3 4 1003.4 1003.4 10.2
26/02:19am 8.5 6.8 7.4 93 0.5 NNE 6 7 3 4 1003.3 1003.3 10.2
26/02:00am 9.8 8.3 9.0 95 0.4 NNE 7 9 4 5 1003.4 1003.4 10.2
26/01:30am 9.8 8.4 8.9 94 0.4 NNE 6 9 3 5 1003.4 1003.4 10.2
26/01:00am 10.5 9.3 9.6 94 0.5 NE 6 7 3 4 1003.4 1003.4 10.2
26/12:30am 10.6 9.2 9.7 94 0.5 ENE 7 9 4 5 1003.6 1003.6 10.2
26/12:00am 10.8 9.7 9.9 94 0.5 ESE 6 7 3 4 1003.7 1003.7 10.2
 
Date/Time
EST
Temp
°C
App
Temp
°C
Dew
Point
Rel
Hum
%
Delta-T
°C
Wind Press
QNH
hPa
Press
MSL
hPa
Rain
since 9 am
mm
Dir
 
Spd
km/h
Gust
km/h
Spd
kts
Gust
kts
25/11:48pm 10.8 9.7 9.9 94 0.5 SE 6 7 3 4 1003.7 1003.7 10.2
25/11:42pm 10.9 9.8 10.0 94 0.5 SE 6 7 3 4 1003.7 1003.7 10.2
25/11:30pm 11.0 9.4 10.1 94 0.5 SSW 9 15 5 8 1003.7 1003.7 10.0
25/11:00pm 11.3 9.0 10.4 94 0.5 SW 13 19 7 10 1003.4 1003.4 9.2
25/10:57pm 11.3 8.2 10.4 94 0.5 WSW 17 28 9 15 1003.4 1003.4 9.2
25/10:35pm 11.4 7.9 10.3 93 0.6 NW 19 28 10 15 1003.4 1003.4 8.4
25/10:30pm 11.8 8.3 10.9 94 0.5 NW 20 28 11 15 1003.4 1003.4 7.6
25/10:00pm 11.5 10.5 10.2 92 0.7 WSW 6 11 3 6 1003.0 1003.0 4.2
25/09:34pm 11.6 8.8 10.0 90 0.8 N 15 20 8 11 1002.4 1002.4 1.8
25/09:33pm 11.6 8.8 10.0 90 0.8 N 15 20 8 11 1002.4 1002.4 1.8
25/09:30pm 11.7 8.9 10.1 90 0.8 N 15 20 8 11 1002.5 1002.5 1.6
25/09:20pm 11.7 8.1 9.9 89 0.9 N 19 28 10 15 1002.5 1002.5 1.4
25/09:00pm 12.1 8.3 9.8 86 1.2 N 20 33 11 18 1002.6 1002.6 0.8
25/08:30pm 12.5 8.5 9.1 80 1.7 N 20 30 11 16 1002.5 1002.5 0.4
25/08:00pm 12.4 8.4 8.9 79 1.8 N 20 32 11 17 1002.5 1002.5 0.4
25/07:30pm 12.1 8.7 9.1 82 1.5 N 17 26 9 14 1003.0 1003.0 0.4
25/07:00pm 11.9 9.3 9.3 84 1.3 NNE 13 19 7 10 1003.3 1003.3 0.4
25/06:30pm 12.7 9.7 9.2 79 1.8 N 15 26 8 14 1003.7 1003.7 0.0
25/06:00pm 13.1 10.0 8.8 75 2.2 N 15 24 8 13 1003.9 1003.9 0.0
25/05:30pm 13.2 9.6 8.5 73 2.3 N 17 26 9 14 1003.8 1003.8 0.0
25/05:00pm 13.4 9.5 8.7 73 2.4 N 19 28 10 15 1004.0 1004.0 0.0
25/04:30pm 13.6 9.7 8.7 72 2.5 N 19 32 10 17 1004.2 1004.2 0.0
25/04:00pm 13.7 9.8 8.7 72 2.5 N 19 32 10 17 1004.3 1004.3 0.0
25/03:30pm 14.0 10.1 8.6 70 2.7 N 19 32 10 17 1004.4 1004.4 0.0
25/03:00pm 14.3 10.3 8.9 70 2.8 N 20 32 11 17 1004.5 1004.5 0.0
25/02:30pm 14.2 10.1 8.6 69 2.8 N 20 30 11 16 1004.7 1004.7 0.0

Other Formats:

Comma delimited format used in spreadsheet applications
http://www.bom.gov.au/fwo/IDT60801/IDT60801.94956.axf

JavaScript Object Notation format (JSON) in row-major order
http://www.bom.gov.au/fwo/IDT60801/IDT60801.94956.json